createdAt,value
2017-05-04T03:34:52.977Z,7.98
2017-05-04T03:36:53.536Z,8
2017-05-04T03:38:33.645Z,8.03
2017-05-04T03:40:24.642Z,7.94
2017-05-04T03:42:16.085Z,8
2017-05-04T03:43:01.153Z,7.98
2017-05-04T03:43:44.810Z,7.91
2017-05-04T03:44:25.237Z,7.9
2017-05-04T03:45:05.739Z,7.9
2017-05-04T03:45:46.214Z,7.97
2017-05-04T03:46:26.710Z,7.91
2017-05-04T03:47:07.191Z,7.9
2017-05-04T03:47:47.657Z,7.83
2017-05-04T03:48:28.186Z,8
2017-05-04T03:49:08.649Z,7.91
2017-05-04T03:49:49.139Z,7.91
2017-05-04T03:50:29.639Z,7.93
2017-05-04T03:51:10.134Z,8.03
2017-05-04T03:51:50.639Z,7.87
2017-05-04T03:52:31.094Z,7.9
2017-05-04T03:53:11.602Z,7.93
2017-05-04T03:53:52.091Z,7.94
2017-05-04T03:54:32.549Z,8.01
2017-05-04T03:55:13.088Z,7.97
2017-05-04T03:55:53.551Z,7.94
2017-05-04T03:56:34.032Z,7.98
2017-05-04T03:57:14.491Z,7.97
2017-05-04T03:57:54.996Z,7.94
2017-05-04T03:58:35.525Z,7.95
2017-05-04T03:59:16.005Z,7.93
2017-05-04T03:59:56.546Z,7.95
2017-05-04T04:00:37.052Z,7.93
2017-05-04T04:01:17.550Z,7.98
2017-05-04T04:01:57.997Z,7.85
2017-05-04T04:02:38.487Z,8.03
2017-05-04T04:03:18.979Z,7.9
2017-05-04T04:03:59.477Z,7.93
2017-05-04T04:04:39.959Z,7.93
2017-05-04T04:05:20.441Z,7.95
2017-05-04T04:06:00.945Z,7.91
2017-05-04T04:06:41.405Z,7.91
2017-05-04T04:07:21.927Z,7.9
2017-05-04T04:08:02.413Z,7.95
2017-05-04T04:08:42.919Z,7.95
2017-05-04T04:09:23.397Z,8
2017-05-04T04:10:03.882Z,7.88
2017-05-04T04:10:44.346Z,8.01
2017-05-04T04:11:24.843Z,7.94
2017-05-04T04:12:05.333Z,7.98
2017-05-04T04:12:45.840Z,8
2017-05-04T04:13:26.286Z,8.01
2017-05-04T04:14:06.797Z,8.05
2017-05-04T04:14:47.303Z,8.01
2017-05-04T04:15:27.789Z,7.95
2017-05-04T04:16:08.278Z,7.98
2017-05-04T04:16:48.784Z,7.98
2017-05-04T04:17:29.390Z,8.03
2017-05-04T04:18:09.814Z,8.01
2017-05-04T04:18:50.334Z,8
2017-05-04T04:19:30.820Z,8.05
2017-05-04T04:20:11.381Z,8
2017-05-04T04:20:51.930Z,7.98
2017-05-04T04:21:32.576Z,8.08
2017-05-04T04:22:12.994Z,8
2017-05-04T04:22:53.716Z,7.98
2017-05-04T04:23:34.207Z,8.03
2017-05-04T04:24:15.321Z,8.03
2017-05-04T04:24:56.127Z,8.05
2017-05-04T04:25:36.652Z,8
2017-05-04T04:26:17.118Z,8.08
2017-05-04T04:26:57.626Z,8.06
2017-05-04T04:27:38.073Z,8.13
2017-05-04T04:28:18.747Z,8.09
2017-05-04T04:28:59.345Z,8.12
2017-05-04T04:29:40.034Z,8.1
2017-05-04T04:30:20.633Z,8.06
2017-05-04T04:31:01.067Z,8.09
2017-05-04T04:31:41.604Z,8.18
2017-05-04T04:32:22.073Z,8.13
2017-05-04T04:33:02.758Z,8.08
2017-05-04T04:33:43.144Z,8.12
2017-05-04T04:34:23.860Z,8.2
2017-05-04T04:35:04.202Z,8.2
2017-05-04T04:35:44.739Z,8.18
2017-05-04T04:36:25.275Z,8.26
2017-05-04T04:37:05.825Z,8.19
2017-05-04T04:37:46.279Z,8.26
2017-05-04T04:38:26.910Z,8.2
2017-05-04T04:39:07.457Z,8.19
2017-05-04T04:39:48.153Z,8.27
2017-05-04T04:40:28.736Z,8.23
2017-05-04T04:41:09.196Z,8.26
2017-05-04T04:41:49.605Z,8.37
2017-05-04T04:42:30.069Z,8.3
2017-05-04T04:43:10.558Z,8.28
2017-05-04T04:43:51.086Z,8.34
2017-05-04T04:44:31.646Z,8.3
2017-05-04T04:45:12.078Z,8.3
2017-05-04T04:45:52.518Z,8.33
2017-05-04T04:46:33.924Z,8.3
2017-05-04T04:47:14.497Z,8.3
2017-05-04T04:47:55.177Z,8.31
2017-05-04T04:48:35.805Z,8.45
2017-05-04T04:49:16.229Z,8.37
2017-05-04T04:49:56.886Z,8.45
2017-05-04T04:50:37.363Z,8.52
2017-05-04T04:51:18.067Z,8.52
2017-05-04T04:51:58.917Z,8.42
2017-05-04T04:52:39.325Z,8.58
2017-05-04T04:53:19.837Z,8.45
2017-05-04T04:54:00.323Z,8.45
2017-05-04T04:54:40.918Z,8.44
2017-05-04T04:55:21.443Z,8.41
2017-05-04T04:56:01.877Z,8.49
2017-05-04T04:56:42.462Z,8.51
2017-05-04T04:57:23.038Z,8.51
2017-05-04T04:58:03.466Z,8.52
2017-05-04T04:58:44.025Z,8.51
2017-05-04T04:59:24.539Z,8.52
2017-05-04T05:00:05.025Z,8.58
2017-05-04T05:00:45.531Z,8.51
2017-05-04T05:01:26.005Z,8.61
2017-05-04T05:02:06.473Z,8.53
2017-05-04T05:02:46.966Z,8.6
2017-05-04T05:03:27.556Z,8.64
2017-05-04T05:04:07.941Z,8.63
2017-05-04T05:04:48.382Z,8.6
2017-05-04T05:05:28.909Z,8.6
2017-05-04T05:06:09.405Z,8.63
2017-05-04T05:06:49.907Z,8.64
2017-05-04T05:07:30.485Z,8.64
2017-05-04T05:08:11.095Z,8.7
2017-05-04T05:08:51.511Z,8.69
2017-05-04T05:09:31.974Z,8.69
2017-05-04T05:10:12.634Z,8.7
2017-05-04T05:10:53.075Z,8.73
2017-05-04T05:11:33.587Z,8.81
2017-05-04T05:12:14.097Z,8.84
2017-05-04T05:12:54.593Z,8.81
2017-05-04T05:13:35.122Z,8.71
2017-05-04T05:14:15.557Z,8.82
2017-05-04T05:14:56.057Z,8.82
2017-05-04T05:15:37.451Z,8.85
2017-05-04T05:16:18.002Z,8.87
2017-05-04T05:16:58.436Z,8.91
2017-05-04T05:17:38.883Z,8.87
2017-05-04T05:18:19.406Z,8.94
2017-05-04T05:18:59.870Z,8.91
2017-05-04T05:19:40.304Z,8.84
2017-05-04T05:20:20.873Z,8.92
2017-05-04T05:21:01.357Z,9.02
2017-05-04T05:21:42.080Z,9.02
2017-05-04T05:22:23.010Z,8.97
2017-05-04T05:23:03.616Z,9.02
2017-05-04T05:23:44.117Z,9.04
2017-05-04T05:24:24.524Z,9.06
2017-05-04T05:25:05.042Z,9.06
2017-05-04T05:25:45.661Z,9.08
2017-05-04T05:26:26.193Z,9.06
2017-05-04T05:27:06.674Z,9.13
2017-05-04T05:27:47.063Z,9.22
2017-05-04T05:28:27.542Z,9.21
2017-05-04T05:29:07.978Z,9.1
2017-05-04T05:29:48.593Z,9.22
2017-05-04T05:30:29.062Z,9.22
2017-05-04T05:31:09.561Z,9.19
2017-05-04T05:31:50.071Z,9.29
2017-05-04T05:32:30.506Z,9.21
2017-05-04T05:33:10.988Z,9.31
2017-05-04T05:33:51.493Z,9.19
2017-05-04T05:34:32.011Z,9.26
2017-05-04T05:35:12.498Z,9.29
2017-05-04T05:35:53.035Z,9.34
2017-05-04T05:36:33.601Z,9.36
2017-05-04T05:37:14.074Z,9.34
2017-05-04T05:37:54.878Z,9.39
2017-05-04T05:38:35.341Z,9.32
2017-05-04T05:39:15.851Z,9.31
2017-05-04T05:39:56.394Z,9.19
2017-05-04T05:40:36.970Z,9.32
2017-05-04T05:41:17.430Z,9.37
2017-05-04T05:41:57.959Z,9.36
2017-05-04T05:42:38.397Z,9.43
2017-05-04T05:43:18.959Z,9.43
2017-05-04T05:43:59.525Z,9.48
2017-05-04T05:44:40.109Z,9.4
2017-05-04T05:45:20.667Z,9.37
2017-05-04T05:46:01.408Z,9.4
2017-05-04T05:46:41.801Z,9.43
2017-05-04T05:47:22.261Z,9.48
2017-05-04T05:48:02.778Z,9.55
2017-05-04T05:48:43.229Z,9.54
2017-05-04T05:49:23.707Z,9.47
2017-05-04T05:50:04.181Z,9.55
2017-05-04T05:50:44.661Z,9.55
2017-05-04T05:51:25.165Z,9.5
2017-05-04T05:52:05.649Z,9.54
2017-05-04T05:52:46.112Z,9.65
2017-05-04T05:53:26.642Z,9.69
2017-05-04T05:54:07.151Z,9.69
2017-05-04T05:54:47.669Z,9.72
2017-05-04T05:55:28.171Z,9.76
2017-05-04T05:56:08.895Z,9.8
2017-05-04T05:56:49.386Z,9.76
2017-05-04T05:57:29.859Z,9.8
2017-05-04T05:58:10.338Z,9.73
2017-05-04T05:58:50.841Z,9.91
2017-05-04T05:59:31.383Z,9.83
2017-05-04T06:00:11.883Z,9.91
2017-05-04T06:00:52.382Z,9.89
2017-05-04T06:01:32.881Z,9.92
2017-05-04T06:02:13.332Z,9.84
2017-05-04T06:02:53.894Z,9.86
2017-05-04T06:03:34.350Z,9.92
2017-05-04T06:04:14.874Z,9.98
2017-05-04T06:04:55.353Z,9.99
2017-05-04T06:05:35.830Z,10.04
2017-05-04T06:06:16.345Z,9.97
2017-05-04T06:06:57.144Z,10.07
2017-05-04T06:07:37.694Z,10.09
2017-05-04T06:08:18.153Z,10.09
2017-05-04T06:08:58.649Z,10.09
2017-05-04T06:09:39.149Z,10.16
2017-05-04T06:10:19.647Z,10.16
2017-05-04T06:11:00.105Z,10.19
2017-05-04T06:11:40.566Z,10.22
2017-05-04T06:12:21.068Z,10.31
2017-05-04T06:13:01.546Z,10.3
2017-05-04T06:13:42.012Z,10.22
2017-05-04T06:14:22.491Z,10.37
2017-05-04T06:15:03.067Z,10.38
2017-05-04T06:15:43.533Z,10.42
2017-05-04T06:16:24.098Z,10.38
2017-05-04T06:17:04.557Z,10.37
2017-05-04T06:17:45.050Z,10.44
2017-05-04T06:18:25.533Z,10.44
2017-05-04T06:19:06.038Z,10.48
2017-05-04T06:19:46.528Z,10.51
2017-05-04T06:20:27.066Z,10.51
2017-05-04T06:21:07.571Z,10.56
2017-05-04T06:21:48.060Z,10.53
2017-05-04T06:22:28.545Z,10.6
2017-05-04T06:23:09.007Z,10.63
2017-05-04T06:23:49.484Z,10.6
2017-05-04T06:24:30.046Z,10.67
2017-05-04T06:25:10.558Z,10.72
2017-05-04T06:25:51.101Z,10.6
2017-05-04T06:26:31.611Z,10.69
2017-05-04T06:27:12.109Z,10.78
2017-05-04T06:27:52.594Z,10.76
2017-05-04T06:28:33.120Z,10.82
2017-05-04T06:29:13.585Z,10.81
2017-05-04T06:29:54.050Z,10.81
2017-05-04T06:30:34.602Z,10.87
2017-05-04T06:31:15.043Z,10.9
2017-05-04T06:31:55.580Z,10.93
2017-05-04T06:32:36.009Z,10.93
2017-05-04T06:33:16.511Z,10.92
2017-05-04T06:33:57.103Z,10.96
2017-05-04T06:34:37.549Z,11.07
2017-05-04T06:35:18.101Z,10.96
2017-05-04T06:35:58.585Z,11
2017-05-04T06:36:39.041Z,11.14
2017-05-04T06:37:19.562Z,11.26
2017-05-04T06:38:00.039Z,11.26
2017-05-04T06:38:40.526Z,11.18
2017-05-04T06:39:21.001Z,11.18
2017-05-04T06:40:01.585Z,11.18
2017-05-04T06:40:42.063Z,11.19
2017-05-04T06:41:22.547Z,11.19
2017-05-04T06:42:03.105Z,11.14
2017-05-04T06:42:43.613Z,11.17
2017-05-04T06:43:24.061Z,11.19
2017-05-04T06:44:04.528Z,11.18
2017-05-04T06:44:44.999Z,11.18
2017-05-04T06:45:25.527Z,11.19
2017-05-04T06:46:05.960Z,11.07
2017-05-04T06:46:46.437Z,11.15
2017-05-04T06:47:26.940Z,11.14
2017-05-04T06:48:07.415Z,11.22
2017-05-04T06:48:47.919Z,11.27
2017-05-04T06:49:28.402Z,11.26
2017-05-04T06:50:08.902Z,11.22
2017-05-04T06:50:49.368Z,11.19
2017-05-04T06:51:29.861Z,11.19
2017-05-04T06:52:10.342Z,11.22
2017-05-04T06:52:50.803Z,11.15
2017-05-04T06:53:31.331Z,11.17
2017-05-04T06:54:11.807Z,11.19
2017-05-04T06:54:52.317Z,11.25
2017-05-04T06:55:32.808Z,11.26
2017-05-04T06:56:13.289Z,11.29
2017-05-04T06:56:53.789Z,11.26
2017-05-04T06:57:34.255Z,11.3
2017-05-04T06:58:14.722Z,11.3
2017-05-04T06:58:55.246Z,11.37
2017-05-04T06:59:35.741Z,11.45
2017-05-04T07:00:17.174Z,11.45
2017-05-04T07:00:57.663Z,11.43
2017-05-04T07:01:38.144Z,11.41
2017-05-04T07:02:18.632Z,11.37
2017-05-04T07:02:59.250Z,11.4
2017-05-04T07:03:39.735Z,11.4
2017-05-04T07:04:20.380Z,11.44
2017-05-04T07:05:00.835Z,11.47
2017-05-04T07:05:41.335Z,11.41
2017-05-04T07:06:23.484Z,11.43
2017-05-04T07:07:03.950Z,11.4
2017-05-04T07:07:44.475Z,11.47
2017-05-04T07:08:24.927Z,11.47
2017-05-04T07:09:05.456Z,11.47
2017-05-04T07:09:45.893Z,11.48
2017-05-04T07:10:26.367Z,11.62
2017-05-04T07:11:06.853Z,11.45
2017-05-04T07:11:47.464Z,11.66
2017-05-04T07:12:27.840Z,11.59
2017-05-04T07:13:08.342Z,11.65
2017-05-04T07:13:49.307Z,11.66
2017-05-04T07:14:29.764Z,11.7
2017-05-04T07:15:10.238Z,11.73
2017-05-04T07:15:50.726Z,11.78
2017-05-04T07:16:31.204Z,11.69
2017-05-04T07:17:12.614Z,11.77
2017-05-04T07:17:53.111Z,11.83
2017-05-04T07:18:33.614Z,11.88
2017-05-04T07:19:14.342Z,11.87
2017-05-04T07:19:54.826Z,11.97
2017-05-04T07:20:35.379Z,12.07
2017-05-04T07:21:15.849Z,12.04
2017-05-04T07:21:56.312Z,12.02
2017-05-04T07:22:36.877Z,12.12
2017-05-04T07:23:17.307Z,12.17
2017-05-04T07:23:57.845Z,12.12
2017-05-04T07:24:38.311Z,12.15
2017-05-04T07:25:18.875Z,12.18
2017-05-04T07:25:59.472Z,12.2
2017-05-04T07:26:39.922Z,12.28
2017-05-04T07:27:20.501Z,12.27
2017-05-04T07:28:01.001Z,12.28
2017-05-04T07:28:41.552Z,12.32
2017-05-04T07:29:22.038Z,12.39
2017-05-04T07:30:02.801Z,12.45
2017-05-04T07:30:43.323Z,12.43
2017-05-04T07:31:23.795Z,12.45
2017-05-04T07:32:04.324Z,12.55
2017-05-04T07:32:44.776Z,12.54
2017-05-04T07:33:25.258Z,12.6
2017-05-04T07:34:05.754Z,12.53
2017-05-04T07:34:46.232Z,12.46
2017-05-04T07:35:26.783Z,12.5
2017-05-04T07:36:07.269Z,12.45
2017-05-04T07:36:47.803Z,12.58
2017-05-04T07:37:28.333Z,12.67
2017-05-04T07:38:08.918Z,12.65
2017-05-04T07:38:49.331Z,12.62
2017-05-04T07:39:29.896Z,12.67
2017-05-04T07:40:10.401Z,12.73
2017-05-04T07:40:50.954Z,12.73
2017-05-04T07:41:31.726Z,12.76
2017-05-04T07:42:12.078Z,12.78
2017-05-04T07:42:52.600Z,12.85
2017-05-04T07:43:33.250Z,12.9
2017-05-04T07:44:13.726Z,12.93
2017-05-04T07:44:54.228Z,12.93
2017-05-04T07:45:34.774Z,12.95
2017-05-04T07:46:15.222Z,13.01
2017-05-04T07:46:55.723Z,13
2017-05-04T07:47:37.899Z,13.01
2017-05-04T07:48:18.424Z,13.05
2017-05-04T07:48:58.917Z,13.04
2017-05-04T07:49:40.452Z,13
2017-05-04T07:50:20.935Z,13.09
2017-05-04T07:51:02.349Z,13.2
2017-05-04T07:51:43.583Z,13.23
2017-05-04T07:52:24.056Z,13.35
2017-05-04T07:53:04.610Z,13.39
2017-05-04T07:53:45.317Z,13.27
2017-05-04T07:54:25.888Z,13.27
2017-05-04T07:55:06.566Z,13.41
2017-05-04T07:55:47.096Z,13.41
2017-05-04T07:56:27.562Z,13.5
2017-05-04T07:57:08.277Z,13.56
2017-05-04T07:57:48.831Z,13.65
2017-05-04T07:58:29.330Z,13.62
2017-05-04T07:59:09.917Z,13.6
2017-05-04T07:59:50.454Z,13.56
2017-05-04T08:00:30.973Z,13.63
2017-05-04T08:01:11.547Z,13.59
2017-05-04T08:01:52.069Z,13.68
2017-05-04T08:02:32.534Z,13.72
2017-05-04T08:03:13.076Z,13.67
2017-05-04T08:03:53.549Z,13.7
2017-05-04T08:04:34.111Z,13.65
2017-05-04T08:05:17.720Z,13.7
2017-05-04T08:05:57.788Z,13.7
2017-05-04T08:06:38.238Z,13.63
2017-05-04T08:07:19.581Z,13.65
2017-05-04T08:08:00.087Z,13.71
2017-05-04T08:08:40.634Z,13.72
2017-05-04T08:09:21.991Z,13.7
2017-05-04T08:11:25.924Z,13.9
2017-05-04T08:12:19.790Z,13.92
2017-05-04T08:13:06.738Z,13.93
2017-05-04T08:13:55.787Z,14.05
2017-05-04T08:14:49.801Z,13.99
2017-05-04T08:16:44.863Z,14.03
2017-05-04T08:17:35.520Z,14.05
2017-05-04T08:20:08.398Z,13.99
2017-05-04T08:21:01.505Z,13.9
2017-05-04T08:21:52.487Z,13.9
2017-05-04T08:22:44.321Z,13.85
2017-05-04T08:23:35.829Z,14.04
2017-05-04T08:24:23.155Z,14.07
2017-05-04T08:25:08.714Z,14.1
2017-05-04T08:25:57.524Z,14.15
2017-05-04T08:26:43.220Z,14.26
2017-05-04T08:27:24.453Z,14.23
2017-05-04T08:28:04.500Z,14.4
2017-05-04T08:28:44.996Z,14.29
2017-05-04T08:29:25.544Z,14.29
2017-05-04T08:30:05.993Z,14.32
2017-05-04T08:30:46.679Z,14.32
2017-05-04T08:31:27.212Z,14.36
2017-05-04T08:32:08.762Z,14.37
2017-05-04T08:32:49.832Z,14.45
2017-05-04T08:33:31.350Z,14.44
2017-05-04T08:34:11.748Z,14.62
2017-05-04T08:34:52.515Z,14.65
2017-05-04T08:35:35.830Z,14.77
2017-05-04T08:36:16.441Z,14.69
2017-05-04T08:36:56.977Z,14.66
2017-05-04T08:37:38.244Z,14.66
2017-05-04T08:38:19.400Z,14.72
2017-05-04T08:38:59.913Z,14.84
2017-05-04T08:39:40.407Z,14.89
2017-05-04T08:40:20.940Z,14.97
2017-05-04T08:41:01.402Z,15.03
2017-05-04T08:41:41.926Z,15.14
2017-05-04T08:42:22.433Z,15.03
2017-05-04T08:43:03.057Z,15.02
2017-05-04T08:43:43.588Z,15.1
2017-05-04T08:44:24.118Z,15.14
2017-05-04T08:45:04.571Z,15.29
2017-05-04T08:45:46.291Z,15.28
2017-05-04T08:46:26.711Z,15.39
2017-05-04T08:47:07.279Z,15.52
2017-05-04T08:47:48.036Z,15.59
2017-05-04T08:48:28.383Z,15.57
2017-05-04T08:49:09.184Z,15.58
2017-05-04T08:49:50.329Z,15.54
2017-05-04T08:50:30.936Z,15.62
2017-05-04T08:51:11.453Z,15.47
2017-05-04T08:51:51.925Z,15.7
2017-05-04T08:52:32.432Z,15.61
2017-05-04T08:53:12.977Z,15.57
2017-05-04T08:53:53.560Z,15.7
2017-05-04T08:54:34.037Z,15.75
2017-05-04T08:55:14.595Z,15.8
2017-05-04T08:55:55.065Z,15.92
2017-05-04T08:56:35.573Z,15.92
2017-05-04T08:57:18.008Z,15.91
2017-05-04T08:57:57.512Z,15.83
2017-05-04T09:00:20.555Z,15.92
2017-05-04T09:01:09.933Z,15.91
2017-05-04T09:01:56.642Z,16
2017-05-04T09:02:43.909Z,15.98
2017-05-04T09:03:24.157Z,15.97
2017-05-04T09:04:04.664Z,15.86
2017-05-04T09:04:45.137Z,15.9
2017-05-04T09:05:25.601Z,15.91
2017-05-04T09:06:06.094Z,15.97
2017-05-04T09:06:46.706Z,15.95
2017-05-04T09:07:27.203Z,15.95
2017-05-04T09:08:07.720Z,15.98
2017-05-04T09:08:48.182Z,16.05
2017-05-04T09:09:32.833Z,16.13
2017-05-04T09:10:22.597Z,16.16
2017-05-04T09:11:11.940Z,15.94
2017-05-04T09:11:58.718Z,16
2017-05-04T09:12:41.202Z,15.95
2017-05-04T09:13:28.023Z,16.05
2017-05-04T09:14:16.092Z,15.97
2017-05-04T09:14:55.897Z,16.01
2017-05-04T09:15:36.373Z,16.01
2017-05-04T09:16:16.901Z,15.95
2017-05-04T09:16:57.377Z,15.97
2017-05-04T09:17:37.923Z,15.9
2017-05-04T09:18:18.428Z,15.94
2017-05-04T09:20:35.231Z,16
2017-05-04T09:21:23.854Z,16.04
2017-05-04T09:22:12.163Z,15.94
2017-05-04T09:23:01.563Z,15.97
2017-05-04T09:23:49.372Z,16.02
2017-05-04T09:24:37.726Z,16.01
2017-05-04T09:25:27.480Z,16.15
2017-05-04T09:26:21.818Z,16.15
2017-05-04T09:27:15.066Z,16.29
2017-05-04T09:28:09.084Z,16.35
2017-05-04T09:28:58.157Z,16.38
2017-05-04T09:29:48.013Z,16.47
2017-05-04T09:30:28.912Z,16.49
2017-05-04T09:31:09.380Z,16.54
2017-05-04T09:31:49.907Z,16.53
2017-05-04T09:32:30.425Z,16.56
2017-05-04T09:33:11.133Z,16.46
2017-05-04T09:33:51.794Z,16.33
2017-05-04T09:34:32.364Z,16.46
2017-05-04T09:35:14.632Z,16.5
2017-05-04T09:35:58.616Z,16.43
2017-05-04T09:36:47.918Z,16.64
2017-05-04T09:37:38.539Z,16.46
2017-05-04T09:38:26.137Z,16.49
2017-05-04T09:39:15.359Z,16.56
2017-05-04T09:40:06.673Z,16.49
2017-05-04T09:40:46.898Z,16.5
2017-05-04T09:41:27.435Z,16.53
2017-05-04T09:42:07.898Z,16.39
2017-05-04T09:42:48.417Z,16.56
2017-05-04T09:43:28.885Z,16.61
2017-05-04T09:44:09.379Z,16.69
2017-05-04T09:44:49.882Z,16.84
2017-05-04T09:45:30.319Z,16.75
2017-05-04T09:46:10.853Z,16.76
2017-05-04T09:46:51.297Z,16.69
2017-05-04T09:47:32.042Z,16.61
2017-05-04T09:48:12.493Z,16.72
2017-05-04T09:48:52.973Z,16.74
2017-05-04T09:49:33.507Z,16.75
2017-05-04T09:50:14.005Z,16.68
2017-05-04T09:50:54.557Z,16.75
2017-05-04T09:51:35.032Z,16.78
2017-05-04T09:52:16.080Z,16.79
2017-05-04T09:52:56.651Z,16.75
2017-05-04T09:53:37.113Z,16.86
2017-05-04T09:54:17.648Z,16.78
2017-05-04T09:54:58.193Z,16.66
2017-05-04T09:55:41.076Z,16.69
2017-05-04T09:56:21.553Z,16.66
2017-05-04T09:57:02.125Z,16.66
2017-05-04T09:57:42.825Z,16.66
2017-05-04T09:58:25.393Z,16.68
2017-05-04T09:59:08.373Z,16.69
2017-05-04T09:59:48.861Z,16.69
2017-05-04T10:00:29.402Z,16.66
2017-05-04T10:01:10.961Z,16.65
2017-05-04T10:01:51.465Z,16.56
2017-05-04T10:02:32.057Z,16.43
2017-05-04T10:03:13.262Z,16.51
2017-05-04T10:03:53.803Z,16.61
2017-05-04T10:04:34.311Z,16.65
2017-05-04T10:05:14.808Z,16.76
2017-05-04T10:05:55.330Z,16.79
2017-05-04T10:06:35.822Z,16.69
2017-05-04T10:07:16.544Z,16.96
2017-05-04T10:07:57.178Z,16.97
2017-05-04T10:08:37.741Z,16.94
2017-05-04T10:09:19.311Z,17.16
2017-05-04T10:10:00.043Z,17.22
2017-05-04T10:10:40.545Z,17.36
2017-05-04T10:11:21.088Z,17.52
2017-05-04T10:12:01.615Z,17.74
2017-05-04T10:12:42.319Z,17.82
2017-05-04T10:13:23.146Z,18.05
2017-05-04T10:14:03.834Z,18.18
2017-05-04T10:14:44.515Z,18.19
2017-05-04T10:15:28.653Z,18.15
2017-05-04T10:16:09.050Z,18.07
2017-05-04T10:16:50.497Z,18.08
2017-05-04T10:17:30.990Z,18.2
2017-05-04T10:18:11.669Z,18.19
2017-05-04T10:18:52.291Z,18.11
2017-05-04T10:19:32.916Z,18.28
2017-05-04T10:20:13.481Z,18.19
2017-05-04T10:20:54.114Z,18.23
2017-05-04T10:21:34.602Z,18.04
2017-05-04T10:22:15.267Z,17.97
2017-05-04T10:22:55.946Z,18.03
2017-05-04T10:23:36.413Z,18.07
2017-05-04T10:24:16.949Z,18
2017-05-04T10:24:57.418Z,18.22
2017-05-04T10:25:37.889Z,18.18
2017-05-04T10:26:18.401Z,18.08
2017-05-04T10:26:58.912Z,17.98
2017-05-04T10:27:39.431Z,18.1
2017-05-04T10:28:20.030Z,18.05
2017-05-04T10:29:00.566Z,18.08
2017-05-04T10:29:41.842Z,18.18
2017-05-04T10:30:22.607Z,18.03
2017-05-04T10:31:03.159Z,18.19
2017-05-04T10:31:44.440Z,18.19
2017-05-04T10:32:24.935Z,18.2
2017-05-04T10:33:05.459Z,18.23
2017-05-04T10:33:45.873Z,18.26
2017-05-04T10:34:26.368Z,18.33
2017-05-04T10:35:06.858Z,18.43
2017-05-04T10:35:47.333Z,18.41
2017-05-04T10:36:27.818Z,18.44
2017-05-04T10:37:08.902Z,18.44
2017-05-04T10:37:49.423Z,18.44
2017-05-04T10:38:29.917Z,18.4
2017-05-04T10:39:10.430Z,18.43
2017-05-04T10:39:50.993Z,18.53
2017-05-04T10:40:31.453Z,18.38
2017-05-04T10:41:12.020Z,18.62
2017-05-04T10:41:52.525Z,18.53
2017-05-04T10:42:32.982Z,18.43
2017-05-04T10:43:13.643Z,18.55
2017-05-04T10:43:54.303Z,18.52
2017-05-04T10:44:34.806Z,18.59
2017-05-04T10:45:15.347Z,18.55
2017-05-04T10:45:55.928Z,18.63
2017-05-04T10:46:36.557Z,18.68
2017-05-04T10:47:17.147Z,18.63
2017-05-04T10:47:57.683Z,18.62
2017-05-04T10:48:38.317Z,18.62
2017-05-04T10:49:18.771Z,18.56
2017-05-04T10:49:59.395Z,18.59
2017-05-04T10:50:39.910Z,18.68
2017-05-04T10:51:20.435Z,18.65
2017-05-04T10:52:01.045Z,18.52
2017-05-04T10:52:41.772Z,18.62
2017-05-04T10:53:22.379Z,18.62
2017-05-04T10:54:03.125Z,18.66
2017-05-04T10:54:43.595Z,18.65
2017-05-04T10:55:24.124Z,18.62
2017-05-04T10:56:04.695Z,18.78
2017-05-04T10:56:45.203Z,18.8
2017-05-04T10:57:25.816Z,18.88
2017-05-04T10:58:12.044Z,18.95
2017-05-04T10:58:57.983Z,18.98
2017-05-04T10:59:44.737Z,18.98
2017-05-04T11:00:29.361Z,18.84
2017-05-04T11:01:10.546Z,18.86
2017-05-04T11:01:51.091Z,18.88
2017-05-04T11:02:31.642Z,19.08
2017-05-04T11:03:12.179Z,18.99
2017-05-04T11:03:52.722Z,18.98
2017-05-04T11:04:33.186Z,18.99
2017-05-04T11:05:13.805Z,19.08
2017-05-04T11:05:54.283Z,19.15
2017-05-04T11:06:34.784Z,19.14
2017-05-04T11:07:15.306Z,19.22
2017-05-04T11:07:55.756Z,19.16
2017-05-04T11:08:36.223Z,19.22
2017-05-04T11:09:16.756Z,19.39
2017-05-04T11:09:57.459Z,19.34
2017-05-04T11:10:38.287Z,19.44
2017-05-04T11:11:18.912Z,19.4
2017-05-04T11:11:59.430Z,19.37
2017-05-04T11:12:39.932Z,19.34
2017-05-04T11:13:20.434Z,19.26
2017-05-04T11:14:01.100Z,19.34
2017-05-04T11:14:41.691Z,19.37
2017-05-04T11:15:22.202Z,19.52
2017-05-04T11:16:02.691Z,19.52
2017-05-04T11:16:43.196Z,19.37
2017-05-04T11:17:26.576Z,19.51
2017-05-04T11:18:08.686Z,19.51
2017-05-04T11:18:49.042Z,19.48
2017-05-04T11:19:29.590Z,19.31
2017-05-04T11:20:10.175Z,19.36
2017-05-04T11:20:50.832Z,19.49
2017-05-04T11:21:31.319Z,19.52
2017-05-04T11:22:11.908Z,19.55
2017-05-04T11:22:52.442Z,19.52
2017-05-04T11:23:32.907Z,19.55
2017-05-04T11:24:13.424Z,19.71
2017-05-04T11:24:53.947Z,19.85
2017-05-04T11:25:34.610Z,20.06
2017-05-04T11:26:15.137Z,20
2017-05-04T11:26:55.720Z,20.03
2017-05-04T11:27:36.138Z,20.09
2017-05-04T11:28:16.592Z,20.1
2017-05-04T11:28:57.079Z,20.18
2017-05-04T11:29:37.667Z,20
2017-05-04T11:30:18.198Z,20.11
2017-05-04T11:30:59.309Z,20.22
2017-05-04T11:31:39.831Z,20.25
2017-05-04T11:32:20.897Z,20.11
2017-05-04T11:33:02.285Z,20.19
2017-05-04T11:33:43.131Z,20.14
2017-05-04T11:34:23.603Z,20.25
2017-05-04T11:35:04.128Z,20.41
2017-05-04T11:35:44.635Z,20.55
2017-05-04T11:36:25.192Z,20.4
2017-05-04T11:37:06.598Z,20.52
2017-05-04T11:37:47.035Z,20.56
2017-05-04T11:38:27.549Z,20.47
2017-05-04T11:39:08.068Z,20.44
2017-05-04T11:39:48.659Z,20.48
2017-05-04T11:40:29.128Z,20.48
2017-05-04T11:41:09.637Z,20.6
2017-05-04T11:41:50.131Z,20.74
2017-05-04T11:42:30.663Z,20.81
2017-05-04T11:43:11.112Z,20.8
2017-05-04T11:43:51.647Z,20.66
2017-05-04T11:44:32.223Z,20.74
2017-05-04T11:45:12.822Z,20.7
2017-05-04T11:45:53.342Z,20.77
2017-05-04T11:46:33.794Z,20.66
2017-05-04T11:47:14.598Z,20.78
2017-05-04T11:47:55.457Z,20.84
2017-05-04T11:48:36.898Z,21.02
2017-05-04T11:49:17.399Z,20.85
2017-05-04T11:49:57.939Z,20.84
2017-05-04T11:50:38.404Z,20.95
2017-05-04T11:51:18.877Z,20.95
2017-05-04T11:51:59.458Z,21.02
2017-05-04T11:52:39.953Z,21.02
2017-05-04T11:53:20.449Z,21.03
2017-05-04T11:54:01.271Z,21
2017-05-04T11:54:41.761Z,21.15
2017-05-04T11:55:22.421Z,21.17
2017-05-04T11:56:02.908Z,21.06
2017-05-04T11:56:43.610Z,21.25
2017-05-04T11:57:24.968Z,21.27
2017-05-04T11:58:05.433Z,21.12
2017-05-04T11:58:45.926Z,21.18
2017-05-04T11:59:26.384Z,21.12
2017-05-04T12:00:06.991Z,21.2
2017-05-04T12:00:47.772Z,21.18
2017-05-04T12:01:28.236Z,21.14
2017-05-04T12:02:08.741Z,20.96
2017-05-04T12:02:49.239Z,20.97
2017-05-04T12:03:29.716Z,21.07
2017-05-04T12:04:10.317Z,20.87
2017-05-04T12:04:50.824Z,20.7
2017-05-04T12:05:31.353Z,20.84
2017-05-04T12:06:11.867Z,20.97
2017-05-04T12:06:53.340Z,20.96
2017-05-04T12:07:33.355Z,20.99
2017-05-04T12:08:13.973Z,21
2017-05-04T12:08:54.458Z,21.09
2017-05-04T12:09:35.023Z,21.25
2017-05-04T12:10:15.447Z,21.11
2017-05-04T12:10:55.940Z,21.11
2017-05-04T12:11:36.546Z,21.12
2017-05-04T12:12:17.040Z,21.24
2017-05-04T12:12:57.569Z,21.11
2017-05-04T12:13:38.088Z,21.06
2017-05-04T12:14:18.594Z,21.15
2017-05-04T12:14:59.147Z,21.2
2017-05-04T12:15:39.604Z,21.09
2017-05-04T12:16:20.150Z,20.99
2017-05-04T12:17:00.822Z,20.87
2017-05-04T12:17:41.335Z,20.9
2017-05-04T12:18:21.824Z,20.93
2017-05-04T12:19:02.384Z,20.97
2017-05-04T12:19:42.912Z,21
2017-05-04T12:20:23.400Z,21.14
2017-05-04T12:21:04.718Z,21.12
2017-05-04T12:21:45.413Z,21.12
2017-05-04T12:22:25.932Z,21.2
2017-05-04T12:23:06.439Z,21.22
2017-05-04T12:23:46.957Z,21.36
2017-05-04T12:24:27.443Z,21.25
2017-05-04T12:25:08.003Z,21.12
2017-05-04T12:25:48.546Z,21.09
2017-05-04T12:26:29.077Z,20.93
2017-05-04T12:27:12.021Z,21.17
2017-05-04T12:27:59.341Z,21.21
2017-05-04T12:28:40.346Z,21.14
2017-05-04T12:29:20.943Z,21
2017-05-04T12:30:01.519Z,20.84
2017-05-04T12:30:42.048Z,20.77
2017-05-04T12:31:22.993Z,20.6
2017-05-04T12:32:03.512Z,20.37
2017-05-04T12:32:44.158Z,20.34
2017-05-04T12:33:24.597Z,20.22
2017-05-04T12:34:05.132Z,20.21
2017-05-04T12:34:45.657Z,20.06
2017-05-04T12:35:29.308Z,20.04
2017-05-04T12:36:11.013Z,19.77
2017-05-04T12:36:53.070Z,19.67
2017-05-04T12:37:33.559Z,19.59
2017-05-04T12:38:14.052Z,19.52
2017-05-04T12:38:55.398Z,19.49
2017-05-04T12:39:37.739Z,19.69
2017-05-04T12:40:18.833Z,19.73
2017-05-04T12:40:59.304Z,19.67
2017-05-04T12:41:39.782Z,19.49
2017-05-04T12:42:20.305Z,19.41
2017-05-04T12:43:00.770Z,19.4
2017-05-04T12:43:41.348Z,19.27
2017-05-04T12:44:21.856Z,19.24